sensor_id;sensor_type;location;lat;lon;timestamp;P1;durP1;ratioP1;P2;durP2;ratioP2
31728;SDS011;18309;43.658;1.312;2024-02-16T00:00:23;28.55;;;3.05;;
31728;SDS011;18309;43.658;1.312;2024-02-16T00:02:50;18.13;;;2.92;;
31728;SDS011;18309;43.658;1.312;2024-02-16T00:05:16;18.45;;;2.75;;
31728;SDS011;18309;43.658;1.312;2024-02-16T00:07:42;20.92;;;3.40;;
31728;SDS011;18309;43.658;1.312;2024-02-16T00:10:08;18.00;;;2.72;;
31728;SDS011;18309;43.658;1.312;2024-02-16T00:12:35;13.60;;;2.47;;
31728;SDS011;18309;43.658;1.312;2024-02-16T00:15:01;26.75;;;3.50;;
31728;SDS011;18309;43.658;1.312;2024-02-16T00:17:28;23.15;;;2.42;;
31728;SDS011;18309;43.658;1.312;2024-02-16T00:19:56;16.10;;;2.88;;
31728;SDS011;18309;43.658;1.312;2024-02-16T00:22:22;30.55;;;4.50;;
31728;SDS011;18309;43.658;1.312;2024-02-16T00:24:48;25.10;;;3.83;;
31728;SDS011;18309;43.658;1.312;2024-02-16T00:27:15;21.08;;;2.97;;
31728;SDS011;18309;43.658;1.312;2024-02-16T00:29:41;17.00;;;2.15;;
31728;SDS011;18309;43.658;1.312;2024-02-16T00:32:08;16.73;;;2.63;;
31728;SDS011;18309;43.658;1.312;2024-02-16T00:34:35;16.63;;;2.72;;
31728;SDS011;18309;43.658;1.312;2024-02-16T00:37:01;15.55;;;2.40;;
31728;SDS011;18309;43.658;1.312;2024-02-16T00:39:28;21.33;;;2.72;;
31728;SDS011;18309;43.658;1.312;2024-02-16T00:41:54;19.33;;;2.75;;
31728;SDS011;18309;43.658;1.312;2024-02-16T00:44:20;22.67;;;2.45;;
31728;SDS011;18309;43.658;1.312;2024-02-16T00:46:46;24.67;;;3.22;;
31728;SDS011;18309;43.658;1.312;2024-02-16T00:49:12;16.00;;;1.92;;
31728;SDS011;18309;43.658;1.312;2024-02-16T00:51:38;21.92;;;3.30;;
31728;SDS011;18309;43.658;1.312;2024-02-16T00:54:04;17.08;;;2.63;;
31728;SDS011;18309;43.658;1.312;2024-02-16T00:56:31;20.55;;;3.33;;
31728;SDS011;18309;43.658;1.312;2024-02-16T00:58:57;17.02;;;2.65;;
31728;SDS011;18309;43.658;1.312;2024-02-16T01:01:23;20.63;;;3.28;;
31728;SDS011;18309;43.658;1.312;2024-02-16T01:03:51;29.58;;;4.05;;
31728;SDS011;18309;43.658;1.312;2024-02-16T01:06:17;15.35;;;2.55;;
31728;SDS011;18309;43.658;1.312;2024-02-16T01:08:43;25.52;;;2.83;;
31728;SDS011;18309;43.658;1.312;2024-02-16T01:11:09;23.38;;;4.00;;
31728;SDS011;18309;43.658;1.312;2024-02-16T01:13:34;16.48;;;3.17;;
31728;SDS011;18309;43.658;1.312;2024-02-16T01:16:00;21.27;;;2.20;;
31728;SDS011;18309;43.658;1.312;2024-02-16T01:18:27;22.45;;;3.80;;
31728;SDS011;18309;43.658;1.312;2024-02-16T01:20:54;22.05;;;3.15;;
31728;SDS011;18309;43.658;1.312;2024-02-16T01:23:20;13.23;;;2.28;;
31728;SDS011;18309;43.658;1.312;2024-02-16T01:25:46;15.43;;;2.85;;
31728;SDS011;18309;43.658;1.312;2024-02-16T01:28:12;21.38;;;2.60;;
31728;SDS011;18309;43.658;1.312;2024-02-16T01:30:38;18.15;;;2.63;;
31728;SDS011;18309;43.658;1.312;2024-02-16T01:33:04;27.98;;;2.67;;
31728;SDS011;18309;43.658;1.312;2024-02-16T01:35:31;18.55;;;2.90;;
31728;SDS011;18309;43.658;1.312;2024-02-16T01:38:00;22.38;;;3.10;;
31728;SDS011;18309;43.658;1.312;2024-02-16T01:40:29;26.40;;;2.72;;
31728;SDS011;18309;43.658;1.312;2024-02-16T01:42:54;22.83;;;3.28;;
31728;SDS011;18309;43.658;1.312;2024-02-16T01:45:20;22.90;;;3.10;;
31728;SDS011;18309;43.658;1.312;2024-02-16T01:47:50;22.92;;;3.22;;
31728;SDS011;18309;43.658;1.312;2024-02-16T01:50:17;20.83;;;3.07;;
31728;SDS011;18309;43.658;1.312;2024-02-16T01:52:44;22.92;;;3.38;;
31728;SDS011;18309;43.658;1.312;2024-02-16T01:55:10;19.00;;;2.80;;
31728;SDS011;18309;43.658;1.312;2024-02-16T01:57:40;22.15;;;3.00;;
31728;SDS011;18309;43.658;1.312;2024-02-16T02:00:09;24.98;;;3.25;;
31728;SDS011;18309;43.658;1.312;2024-02-16T02:02:35;17.70;;;3.05;;
31728;SDS011;18309;43.658;1.312;2024-02-16T02:05:01;16.55;;;2.65;;
31728;SDS011;18309;43.658;1.312;2024-02-16T02:07:28;29.15;;;3.92;;
31728;SDS011;18309;43.658;1.312;2024-02-16T02:09:55;20.77;;;3.08;;
31728;SDS011;18309;43.658;1.312;2024-02-16T02:12:21;18.08;;;2.53;;
31728;SDS011;18309;43.658;1.312;2024-02-16T02:14:48;20.83;;;2.55;;
31728;SDS011;18309;43.658;1.312;2024-02-16T02:17:17;18.85;;;2.67;;
31728;SDS011;18309;43.658;1.312;2024-02-16T02:19:44;25.38;;;3.17;;
31728;SDS011;18309;43.658;1.312;2024-02-16T02:22:17;21.23;;;3.67;;
31728;SDS011;18309;43.658;1.312;2024-02-16T02:24:45;17.27;;;2.90;;
31728;SDS011;18309;43.658;1.312;2024-02-16T02:27:12;20.00;;;2.85;;
31728;SDS011;18309;43.658;1.312;2024-02-16T02:29:38;24.00;;;3.22;;
31728;SDS011;18309;43.658;1.312;2024-02-16T02:32:05;20.48;;;2.80;;
31728;SDS011;18309;43.658;1.312;2024-02-16T02:34:31;19.20;;;2.65;;
31728;SDS011;18309;43.658;1.312;2024-02-16T02:36:57;22.90;;;3.25;;
31728;SDS011;18309;43.658;1.312;2024-02-16T02:39:23;21.08;;;2.70;;
31728;SDS011;18309;43.658;1.312;2024-02-16T02:41:48;22.27;;;2.67;;
31728;SDS011;18309;43.658;1.312;2024-02-16T02:44:14;21.63;;;3.20;;
31728;SDS011;18309;43.658;1.312;2024-02-16T02:46:40;23.30;;;2.85;;
31728;SDS011;18309;43.658;1.312;2024-02-16T02:49:06;22.48;;;3.10;;
31728;SDS011;18309;43.658;1.312;2024-02-16T02:51:31;20.85;;;2.88;;
31728;SDS011;18309;43.658;1.312;2024-02-16T02:53:57;20.48;;;2.80;;
31728;SDS011;18309;43.658;1.312;2024-02-16T02:56:23;30.15;;;3.70;;
31728;SDS011;18309;43.658;1.312;2024-02-16T02:58:48;24.92;;;3.10;;
31728;SDS011;18309;43.658;1.312;2024-02-16T03:01:14;20.85;;;3.17;;
31728;SDS011;18309;43.658;1.312;2024-02-16T03:03:40;25.42;;;3.17;;
31728;SDS011;18309;43.658;1.312;2024-02-16T03:06:08;27.30;;;3.03;;
31728;SDS011;18309;43.658;1.312;2024-02-16T03:08:34;14.38;;;3.58;;
31728;SDS011;18309;43.658;1.312;2024-02-16T03:11:00;21.90;;;3.53;;
31728;SDS011;18309;43.658;1.312;2024-02-16T03:13:26;20.88;;;3.47;;
31728;SDS011;18309;43.658;1.312;2024-02-16T03:15:52;20.50;;;2.72;;
31728;SDS011;18309;43.658;1.312;2024-02-16T03:18:18;16.77;;;3.33;;
31728;SDS011;18309;43.658;1.312;2024-02-16T03:20:44;18.35;;;2.75;;
31728;SDS011;18309;43.658;1.312;2024-02-16T03:23:13;18.58;;;2.95;;
31728;SDS011;18309;43.658;1.312;2024-02-16T03:25:39;18.13;;;3.17;;
31728;SDS011;18309;43.658;1.312;2024-02-16T03:28:05;19.42;;;2.78;;
31728;SDS011;18309;43.658;1.312;2024-02-16T03:30:37;23.63;;;3.10;;
31728;SDS011;18309;43.658;1.312;2024-02-16T03:33:03;17.10;;;2.67;;
31728;SDS011;18309;43.658;1.312;2024-02-16T03:35:29;18.80;;;3.05;;
31728;SDS011;18309;43.658;1.312;2024-02-16T03:37:55;14.20;;;2.80;;
31728;SDS011;18309;43.658;1.312;2024-02-16T03:40:21;21.25;;;3.90;;
31728;SDS011;18309;43.658;1.312;2024-02-16T03:42:47;18.42;;;3.47;;
31728;SDS011;18309;43.658;1.312;2024-02-16T03:45:13;14.25;;;3.03;;
31728;SDS011;18309;43.658;1.312;2024-02-16T03:47:42;14.45;;;2.80;;
31728;SDS011;18309;43.658;1.312;2024-02-16T03:50:08;16.88;;;3.28;;
31728;SDS011;18309;43.658;1.312;2024-02-16T03:52:34;21.13;;;3.75;;
31728;SDS011;18309;43.658;1.312;2024-02-16T03:54:59;20.38;;;2.45;;
31728;SDS011;18309;43.658;1.312;2024-02-16T03:57:25;20.05;;;3.08;;
31728;SDS011;18309;43.658;1.312;2024-02-16T03:59:51;14.35;;;3.03;;
31728;SDS011;18309;43.658;1.312;2024-02-16T04:02:17;16.48;;;3.05;;
31728;SDS011;18309;43.658;1.312;2024-02-16T04:04:43;15.55;;;2.85;;
31728;SDS011;18309;43.658;1.312;2024-02-16T04:07:09;11.20;;;2.85;;
31728;SDS011;18309;43.658;1.312;2024-02-16T04:09:37;17.00;;;3.58;;
31728;SDS011;18309;43.658;1.312;2024-02-16T04:12:03;15.98;;;3.10;;
31728;SDS011;18309;43.658;1.312;2024-02-16T04:14:32;15.80;;;2.95;;
31728;SDS011;18309;43.658;1.312;2024-02-16T04:16:58;19.48;;;3.83;;
31728;SDS011;18309;43.658;1.312;2024-02-16T04:19:27;22.23;;;3.42;;
31728;SDS011;18309;43.658;1.312;2024-02-16T04:21:54;15.90;;;3.72;;
31728;SDS011;18309;43.658;1.312;2024-02-16T04:24:20;14.77;;;2.88;;
31728;SDS011;18309;43.658;1.312;2024-02-16T04:26:46;21.70;;;3.55;;
31728;SDS011;18309;43.658;1.312;2024-02-16T04:29:11;22.80;;;4.60;;
31728;SDS011;18309;43.658;1.312;2024-02-16T04:31:40;21.38;;;4.40;;
31728;SDS011;18309;43.658;1.312;2024-02-16T04:34:10;27.27;;;4.13;;
31728;SDS011;18309;43.658;1.312;2024-02-16T04:36:36;14.85;;;3.45;;
31728;SDS011;18309;43.658;1.312;2024-02-16T04:39:02;18.15;;;3.97;;
31728;SDS011;18309;43.658;1.312;2024-02-16T04:41:28;21.23;;;4.93;;
31728;SDS011;18309;43.658;1.312;2024-02-16T04:43:54;21.15;;;4.80;;
31728;SDS011;18309;43.658;1.312;2024-02-16T04:46:19;16.58;;;3.63;;
31728;SDS011;18309;43.658;1.312;2024-02-16T04:48:46;13.02;;;2.60;;
31728;SDS011;18309;43.658;1.312;2024-02-16T04:51:11;22.90;;;3.08;;
31728;SDS011;18309;43.658;1.312;2024-02-16T04:53:37;15.00;;;2.13;;
31728;SDS011;18309;43.658;1.312;2024-02-16T04:56:03;11.88;;;2.33;;
31728;SDS011;18309;43.658;1.312;2024-02-16T04:58:30;10.20;;;2.13;;
31728;SDS011;18309;43.658;1.312;2024-02-16T05:00:56;10.55;;;3.25;;
31728;SDS011;18309;43.658;1.312;2024-02-16T05:03:22;9.60;;;3.38;;
31728;SDS011;18309;43.658;1.312;2024-02-16T05:05:47;4.05;;;0.70;;
31728;SDS011;18309;43.658;1.312;2024-02-16T05:08:13;4.57;;;1.30;;
31728;SDS011;18309;43.658;1.312;2024-02-16T05:10:39;10.43;;;1.50;;
31728;SDS011;18309;43.658;1.312;2024-02-16T05:13:05;2.83;;;0.60;;
31728;SDS011;18309;43.658;1.312;2024-02-16T05:15:31;2.90;;;0.57;;
31728;SDS011;18309;43.658;1.312;2024-02-16T05:17:57;3.88;;;0.70;;
31728;SDS011;18309;43.658;1.312;2024-02-16T05:20:22;6.57;;;1.35;;
31728;SDS011;18309;43.658;1.312;2024-02-16T05:22:48;7.65;;;0.85;;
31728;SDS011;18309;43.658;1.312;2024-02-16T05:25:15;2.42;;;0.90;;
31728;SDS011;18309;43.658;1.312;2024-02-16T05:27:42;2.13;;;0.75;;
31728;SDS011;18309;43.658;1.312;2024-02-16T05:30:09;7.38;;;0.90;;
31728;SDS011;18309;43.658;1.312;2024-02-16T05:32:38;2.70;;;1.20;;
31728;SDS011;18309;43.658;1.312;2024-02-16T05:35:04;6.20;;;2.40;;
31728;SDS011;18309;43.658;1.312;2024-02-16T05:37:45;4.63;;;2.30;;
31728;SDS011;18309;43.658;1.312;2024-02-16T05:40:16;3.17;;;1.00;;
31728;SDS011;18309;43.658;1.312;2024-02-16T05:43:08;4.15;;;0.73;;
31728;SDS011;18309;43.658;1.312;2024-02-16T05:45:34;1.90;;;0.77;;
31728;SDS011;18309;43.658;1.312;2024-02-16T05:48:00;3.83;;;0.90;;
31728;SDS011;18309;43.658;1.312;2024-02-16T05:50:26;3.22;;;0.98;;
31728;SDS011;18309;43.658;1.312;2024-02-16T05:52:52;3.47;;;1.00;;
31728;SDS011;18309;43.658;1.312;2024-02-16T05:55:17;2.63;;;0.80;;
31728;SDS011;18309;43.658;1.312;2024-02-16T05:57:46;6.47;;;1.33;;
31728;SDS011;18309;43.658;1.312;2024-02-16T06:00:12;8.25;;;2.15;;
31728;SDS011;18309;43.658;1.312;2024-02-16T06:02:38;4.88;;;2.00;;
31728;SDS011;18309;43.658;1.312;2024-02-16T06:05:04;4.03;;;1.10;;
31728;SDS011;18309;43.658;1.312;2024-02-16T06:07:30;6.65;;;1.80;;
31728;SDS011;18309;43.658;1.312;2024-02-16T06:09:56;3.97;;;1.10;;
31728;SDS011;18309;43.658;1.312;2024-02-16T06:12:22;4.38;;;1.00;;
31728;SDS011;18309;43.658;1.312;2024-02-16T06:14:48;4.60;;;0.80;;
31728;SDS011;18309;43.658;1.312;2024-02-16T06:17:14;4.40;;;1.13;;
31728;SDS011;18309;43.658;1.312;2024-02-16T06:19:41;6.60;;;1.52;;
31728;SDS011;18309;43.658;1.312;2024-02-16T06:22:07;5.53;;;1.38;;
31728;SDS011;18309;43.658;1.312;2024-02-16T06:24:33;3.78;;;1.55;;
31728;SDS011;18309;43.658;1.312;2024-02-16T06:26:59;5.57;;;1.30;;
31728;SDS011;18309;43.658;1.312;2024-02-16T06:29:25;3.53;;;1.33;;
31728;SDS011;18309;43.658;1.312;2024-02-16T06:31:51;5.10;;;1.02;;
31728;SDS011;18309;43.658;1.312;2024-02-16T06:34:17;4.78;;;1.50;;
31728;SDS011;18309;43.658;1.312;2024-02-16T06:36:44;11.43;;;1.77;;
31728;SDS011;18309;43.658;1.312;2024-02-16T06:39:10;5.43;;;1.60;;
31728;SDS011;18309;43.658;1.312;2024-02-16T06:41:36;5.57;;;2.28;;
31728;SDS011;18309;43.658;1.312;2024-02-16T06:44:02;4.97;;;2.05;;
31728;SDS011;18309;43.658;1.312;2024-02-16T06:46:29;3.88;;;1.90;;
31728;SDS011;18309;43.658;1.312;2024-02-16T06:48:55;3.38;;;1.67;;
31728;SDS011;18309;43.658;1.312;2024-02-16T06:51:24;3.95;;;1.42;;
31728;SDS011;18309;43.658;1.312;2024-02-16T06:53:51;4.57;;;1.63;;
31728;SDS011;18309;43.658;1.312;2024-02-16T06:56:17;5.72;;;2.13;;
31728;SDS011;18309;43.658;1.312;2024-02-16T06:58:43;5.28;;;2.17;;
31728;SDS011;18309;43.658;1.312;2024-02-16T07:01:13;6.97;;;2.33;;
31728;SDS011;18309;43.658;1.312;2024-02-16T07:03:39;8.75;;;2.67;;
31728;SDS011;18309;43.658;1.312;2024-02-16T07:06:05;10.82;;;3.63;;
31728;SDS011;18309;43.658;1.312;2024-02-16T07:08:35;8.18;;;3.35;;
31728;SDS011;18309;43.658;1.312;2024-02-16T07:11:01;7.13;;;2.53;;
31728;SDS011;18309;43.658;1.312;2024-02-16T07:13:28;8.10;;;2.72;;
31728;SDS011;18309;43.658;1.312;2024-02-16T07:15:54;7.80;;;2.25;;
31728;SDS011;18309;43.658;1.312;2024-02-16T07:18:20;5.70;;;2.42;;
31728;SDS011;18309;43.658;1.312;2024-02-16T07:20:47;6.80;;;2.58;;
31728;SDS011;18309;43.658;1.312;2024-02-16T07:23:12;3.35;;;1.67;;
31728;SDS011;18309;43.658;1.312;2024-02-16T07:25:40;4.00;;;1.63;;
31728;SDS011;18309;43.658;1.312;2024-02-16T07:28:06;5.68;;;1.20;;
31728;SDS011;18309;43.658;1.312;2024-02-16T07:30:33;2.85;;;1.05;;
31728;SDS011;18309;43.658;1.312;2024-02-16T07:32:59;5.05;;;1.35;;
31728;SDS011;18309;43.658;1.312;2024-02-16T07:35:25;5.80;;;1.50;;
31728;SDS011;18309;43.658;1.312;2024-02-16T07:37:51;2.95;;;1.23;;
31728;SDS011;18309;43.658;1.312;2024-02-16T07:40:18;5.25;;;1.50;;
31728;SDS011;18309;43.658;1.312;2024-02-16T07:42:47;4.82;;;0.90;;
31728;SDS011;18309;43.658;1.312;2024-02-16T07:45:13;5.15;;;1.10;;
31728;SDS011;18309;43.658;1.312;2024-02-16T07:47:42;2.72;;;1.10;;
31728;SDS011;18309;43.658;1.312;2024-02-16T07:50:08;5.82;;;1.13;;
31728;SDS011;18309;43.658;1.312;2024-02-16T07:52:34;5.75;;;1.40;;
31728;SDS011;18309;43.658;1.312;2024-02-16T07:55:00;7.30;;;1.80;;
31728;SDS011;18309;43.658;1.312;2024-02-16T07:57:26;6.93;;;1.58;;
31728;SDS011;18309;43.658;1.312;2024-02-16T07:59:52;7.40;;;1.70;;
31728;SDS011;18309;43.658;1.312;2024-02-16T08:02:18;8.00;;;1.60;;
31728;SDS011;18309;43.658;1.312;2024-02-16T08:04:50;7.82;;;1.42;;
31728;SDS011;18309;43.658;1.312;2024-02-16T08:07:16;7.60;;;1.90;;
31728;SDS011;18309;43.658;1.312;2024-02-16T08:09:46;7.82;;;1.50;;
31728;SDS011;18309;43.658;1.312;2024-02-16T08:12:14;6.65;;;1.77;;
31728;SDS011;18309;43.658;1.312;2024-02-16T08:14:41;7.60;;;1.75;;
31728;SDS011;18309;43.658;1.312;2024-02-16T08:17:07;12.32;;;1.75;;
31728;SDS011;18309;43.658;1.312;2024-02-16T08:19:35;9.40;;;1.45;;
31728;SDS011;18309;43.658;1.312;2024-02-16T08:22:08;9.02;;;1.73;;
31728;SDS011;18309;43.658;1.312;2024-02-16T08:24:34;9.43;;;1.85;;
31728;SDS011;18309;43.658;1.312;2024-02-16T08:27:00;8.25;;;1.75;;
31728;SDS011;18309;43.658;1.312;2024-02-16T08:29:27;8.60;;;1.77;;
31728;SDS011;18309;43.658;1.312;2024-02-16T08:31:54;10.23;;;2.30;;
31728;SDS011;18309;43.658;1.312;2024-02-16T08:34:20;10.95;;;2.58;;
31728;SDS011;18309;43.658;1.312;2024-02-16T08:36:47;7.40;;;2.08;;
31728;SDS011;18309;43.658;1.312;2024-02-16T08:39:13;6.65;;;1.67;;
31728;SDS011;18309;43.658;1.312;2024-02-16T08:41:40;12.52;;;2.25;;
31728;SDS011;18309;43.658;1.312;2024-02-16T08:44:06;8.35;;;2.25;;
31728;SDS011;18309;43.658;1.312;2024-02-16T08:46:34;11.82;;;2.00;;
31728;SDS011;18309;43.658;1.312;2024-02-16T08:49:01;8.82;;;1.48;;
31728;SDS011;18309;43.658;1.312;2024-02-16T08:51:27;12.48;;;2.08;;
31728;SDS011;18309;43.658;1.312;2024-02-16T08:53:53;13.15;;;2.40;;
31728;SDS011;18309;43.658;1.312;2024-02-16T08:56:19;10.30;;;1.85;;
31728;SDS011;18309;43.658;1.312;2024-02-16T08:58:46;9.57;;;2.33;;
31728;SDS011;18309;43.658;1.312;2024-02-16T09:01:11;16.90;;;2.33;;
31728;SDS011;18309;43.658;1.312;2024-02-16T09:03:37;9.32;;;1.92;;
31728;SDS011;18309;43.658;1.312;2024-02-16T09:06:05;6.72;;;1.13;;
31728;SDS011;18309;43.658;1.312;2024-02-16T09:08:31;7.45;;;1.65;;
31728;SDS011;18309;43.658;1.312;2024-02-16T09:11:00;10.55;;;1.67;;
31728;SDS011;18309;43.658;1.312;2024-02-16T09:13:33;8.73;;;1.65;;
31728;SDS011;18309;43.658;1.312;2024-02-16T09:16:01;7.20;;;1.58;;
31728;SDS011;18309;43.658;1.312;2024-02-16T09:18:28;12.77;;;1.80;;
31728;SDS011;18309;43.658;1.312;2024-02-16T09:20:54;9.32;;;1.85;;
31728;SDS011;18309;43.658;1.312;2024-02-16T09:23:20;5.80;;;1.45;;
31728;SDS011;18309;43.658;1.312;2024-02-16T09:25:46;8.88;;;1.35;;
31728;SDS011;18309;43.658;1.312;2024-02-16T09:28:13;9.95;;;1.40;;
31728;SDS011;18309;43.658;1.312;2024-02-16T09:30:39;12.18;;;1.85;;
31728;SDS011;18309;43.658;1.312;2024-02-16T09:33:05;9.38;;;1.83;;
31728;SDS011;18309;43.658;1.312;2024-02-16T09:35:32;8.10;;;1.40;;
31728;SDS011;18309;43.658;1.312;2024-02-16T09:37:58;8.30;;;1.35;;
31728;SDS011;18309;43.658;1.312;2024-02-16T09:40:24;9.73;;;1.40;;
31728;SDS011;18309;43.658;1.312;2024-02-16T09:42:50;8.98;;;1.70;;
31728;SDS011;18309;43.658;1.312;2024-02-16T09:45:16;6.25;;;1.38;;
31728;SDS011;18309;43.658;1.312;2024-02-16T09:47:45;17.02;;;2.97;;
31728;SDS011;18309;43.658;1.312;2024-02-16T09:50:15;13.15;;;2.72;;
31728;SDS011;18309;43.658;1.312;2024-02-16T09:52:42;15.57;;;2.25;;
31728;SDS011;18309;43.658;1.312;2024-02-16T09:55:15;15.35;;;2.45;;
31728;SDS011;18309;43.658;1.312;2024-02-16T09:57:42;11.77;;;2.22;;
31728;SDS011;18309;43.658;1.312;2024-02-16T10:00:11;20.55;;;3.03;;
31728;SDS011;18309;43.658;1.312;2024-02-16T10:02:43;12.57;;;2.83;;
31728;SDS011;18309;43.658;1.312;2024-02-16T10:05:20;21.92;;;3.70;;
31728;SDS011;18309;43.658;1.312;2024-02-16T10:07:46;16.30;;;2.63;;
31728;SDS011;18309;43.658;1.312;2024-02-16T10:10:25;19.95;;;2.53;;
31728;SDS011;18309;43.658;1.312;2024-02-16T10:13:02;26.45;;;3.13;;
31728;SDS011;18309;43.658;1.312;2024-02-16T10:15:34;20.55;;;2.08;;
31728;SDS011;18309;43.658;1.312;2024-02-16T10:18:00;18.88;;;2.83;;
31728;SDS011;18309;43.658;1.312;2024-02-16T10:20:27;22.38;;;3.17;;
31728;SDS011;18309;43.658;1.312;2024-02-16T10:23:03;21.10;;;2.47;;
31728;SDS011;18309;43.658;1.312;2024-02-16T10:25:30;19.67;;;2.92;;
31728;SDS011;18309;43.658;1.312;2024-02-16T10:27:56;30.42;;;3.53;;
31728;SDS011;18309;43.658;1.312;2024-02-16T10:30:23;23.85;;;2.70;;
31728;SDS011;18309;43.658;1.312;2024-02-16T10:32:54;26.60;;;2.65;;
31728;SDS011;18309;43.658;1.312;2024-02-16T10:35:20;10.80;;;2.20;;
31728;SDS011;18309;43.658;1.312;2024-02-16T10:37:46;9.73;;;1.10;;
31728;SDS011;18309;43.658;1.312;2024-02-16T10:40:12;15.90;;;1.63;;
31728;SDS011;18309;43.658;1.312;2024-02-16T10:42:44;9.95;;;2.72;;
31728;SDS011;18309;43.658;1.312;2024-02-16T10:45:11;11.93;;;2.08;;
31728;SDS011;18309;43.658;1.312;2024-02-16T10:47:38;21.92;;;2.50;;
31728;SDS011;18309;43.658;1.312;2024-02-16T10:50:04;16.95;;;2.20;;
31728;SDS011;18309;43.658;1.312;2024-02-16T10:52:31;11.32;;;2.00;;
31728;SDS011;18309;43.658;1.312;2024-02-16T10:54:57;17.50;;;2.25;;
31728;SDS011;18309;43.658;1.312;2024-02-16T10:57:25;23.80;;;3.13;;
31728;SDS011;18309;43.658;1.312;2024-02-16T10:59:52;18.88;;;2.58;;
31728;SDS011;18309;43.658;1.312;2024-02-16T11:02:19;19.30;;;2.50;;
31728;SDS011;18309;43.658;1.312;2024-02-16T11:04:46;25.77;;;2.15;;
31728;SDS011;18309;43.658;1.312;2024-02-16T11:07:16;14.32;;;2.13;;
31728;SDS011;18309;43.658;1.312;2024-02-16T11:09:43;21.23;;;2.08;;
31728;SDS011;18309;43.658;1.312;2024-02-16T11:12:11;15.63;;;2.20;;
31728;SDS011;18309;43.658;1.312;2024-02-16T11:14:42;19.15;;;2.40;;
31728;SDS011;18309;43.658;1.312;2024-02-16T11:19:35;22.95;;;2.92;;
31728;SDS011;18309;43.658;1.312;2024-02-16T11:22:04;22.13;;;3.63;;
31728;SDS011;18309;43.658;1.312;2024-02-16T11:24:34;30.80;;;4.07;;
31728;SDS011;18309;43.658;1.312;2024-02-16T11:27:01;22.00;;;2.63;;
31728;SDS011;18309;43.658;1.312;2024-02-16T11:29:31;17.47;;;2.63;;
31728;SDS011;18309;43.658;1.312;2024-02-16T11:31:59;25.15;;;3.30;;
31728;SDS011;18309;43.658;1.312;2024-02-16T11:34:28;22.33;;;3.50;;
31728;SDS011;18309;43.658;1.312;2024-02-16T11:36:58;24.02;;;3.58;;
31728;SDS011;18309;43.658;1.312;2024-02-16T11:39:25;29.67;;;4.47;;
31728;SDS011;18309;43.658;1.312;2024-02-16T11:44:27;47.05;;;4.00;;
31728;SDS011;18309;43.658;1.312;2024-02-16T11:46:57;20.15;;;2.92;;
31728;SDS011;18309;43.658;1.312;2024-02-16T11:49:23;20.33;;;3.00;;
31728;SDS011;18309;43.658;1.312;2024-02-16T11:51:49;25.00;;;3.38;;
31728;SDS011;18309;43.658;1.312;2024-02-16T11:54:15;18.75;;;3.38;;
31728;SDS011;18309;43.658;1.312;2024-02-16T11:56:45;29.75;;;3.15;;
31728;SDS011;18309;43.658;1.312;2024-02-16T11:59:14;31.73;;;3.88;;
31728;SDS011;18309;43.658;1.312;2024-02-16T12:01:56;37.40;;;4.22;;
31728;SDS011;18309;43.658;1.312;2024-02-16T12:04:23;27.23;;;3.58;;
31728;SDS011;18309;43.658;1.312;2024-02-16T12:06:54;29.33;;;3.87;;
31728;SDS011;18309;43.658;1.312;2024-02-16T12:09:20;24.63;;;3.90;;
31728;SDS011;18309;43.658;1.312;2024-02-16T12:11:47;20.55;;;2.75;;
31728;SDS011;18309;43.658;1.312;2024-02-16T12:14:14;24.42;;;3.10;;
31728;SDS011;18309;43.658;1.312;2024-02-16T12:16:41;37.10;;;3.47;;
31728;SDS011;18309;43.658;1.312;2024-02-16T12:19:06;17.73;;;1.88;;
31728;SDS011;18309;43.658;1.312;2024-02-16T12:21:33;20.88;;;3.50;;
31728;SDS011;18309;43.658;1.312;2024-02-16T12:24:00;20.25;;;2.88;;
31728;SDS011;18309;43.658;1.312;2024-02-16T12:26:25;12.27;;;2.10;;
31728;SDS011;18309;43.658;1.312;2024-02-16T12:28:51;21.45;;;2.63;;
31728;SDS011;18309;43.658;1.312;2024-02-16T12:31:23;20.13;;;3.90;;
31728;SDS011;18309;43.658;1.312;2024-02-16T12:33:51;20.27;;;2.78;;
31728;SDS011;18309;43.658;1.312;2024-02-16T12:36:17;21.63;;;2.78;;
31728;SDS011;18309;43.658;1.312;2024-02-16T12:38:43;27.13;;;3.17;;
31728;SDS011;18309;43.658;1.312;2024-02-16T12:41:09;29.42;;;3.95;;
31728;SDS011;18309;43.658;1.312;2024-02-16T12:43:35;24.90;;;3.15;;
31728;SDS011;18309;43.658;1.312;2024-02-16T12:46:00;20.65;;;2.38;;
31728;SDS011;18309;43.658;1.312;2024-02-16T12:48:29;19.45;;;2.85;;
31728;SDS011;18309;43.658;1.312;2024-02-16T12:50:54;27.52;;;3.40;;
31728;SDS011;18309;43.658;1.312;2024-02-16T12:53:20;29.95;;;3.33;;
31728;SDS011;18309;43.658;1.312;2024-02-16T12:55:49;16.20;;;2.42;;
31728;SDS011;18309;43.658;1.312;2024-02-16T12:58:15;19.50;;;2.78;;
31728;SDS011;18309;43.658;1.312;2024-02-16T13:00:41;20.80;;;2.80;;
31728;SDS011;18309;43.658;1.312;2024-02-16T13:03:07;18.50;;;2.13;;
31728;SDS011;18309;43.658;1.312;2024-02-16T13:05:33;17.13;;;2.33;;
31728;SDS011;18309;43.658;1.312;2024-02-16T13:07:59;28.23;;;3.30;;
31728;SDS011;18309;43.658;1.312;2024-02-16T13:10:25;20.75;;;3.08;;
31728;SDS011;18309;43.658;1.312;2024-02-16T13:12:51;26.15;;;2.42;;
31728;SDS011;18309;43.658;1.312;2024-02-16T13:15:16;18.38;;;3.05;;
31728;SDS011;18309;43.658;1.312;2024-02-16T13:17:42;24.92;;;3.25;;
31728;SDS011;18309;43.658;1.312;2024-02-16T13:20:08;23.20;;;2.88;;
31728;SDS011;18309;43.658;1.312;2024-02-16T13:22:36;17.30;;;2.38;;
31728;SDS011;18309;43.658;1.312;2024-02-16T13:25:03;24.83;;;2.97;;
31728;SDS011;18309;43.658;1.312;2024-02-16T13:27:29;23.60;;;2.92;;
31728;SDS011;18309;43.658;1.312;2024-02-16T13:29:55;21.45;;;2.40;;
31728;SDS011;18309;43.658;1.312;2024-02-16T13:32:21;17.95;;;2.67;;
31728;SDS011;18309;43.658;1.312;2024-02-16T13:34:47;20.20;;;3.05;;
31728;SDS011;18309;43.658;1.312;2024-02-16T13:37:13;25.83;;;3.65;;
31728;SDS011;18309;43.658;1.312;2024-02-16T13:39:39;21.58;;;2.65;;
31728;SDS011;18309;43.658;1.312;2024-02-16T13:42:04;18.67;;;2.53;;
31728;SDS011;18309;43.658;1.312;2024-02-16T13:44:30;21.67;;;2.63;;
31728;SDS011;18309;43.658;1.312;2024-02-16T13:46:56;23.05;;;2.83;;
31728;SDS011;18309;43.658;1.312;2024-02-16T13:49:22;21.48;;;3.70;;
31728;SDS011;18309;43.658;1.312;2024-02-16T13:51:48;30.23;;;3.88;;
31728;SDS011;18309;43.658;1.312;2024-02-16T13:54:14;21.98;;;3.22;;
31728;SDS011;18309;43.658;1.312;2024-02-16T13:56:40;24.67;;;3.30;;
31728;SDS011;18309;43.658;1.312;2024-02-16T13:59:06;16.95;;;3.33;;
31728;SDS011;18309;43.658;1.312;2024-02-16T14:01:34;19.67;;;3.08;;
31728;SDS011;18309;43.658;1.312;2024-02-16T14:04:02;14.63;;;1.77;;
31728;SDS011;18309;43.658;1.312;2024-02-16T14:06:28;9.40;;;2.13;;
31728;SDS011;18309;43.658;1.312;2024-02-16T14:08:56;5.93;;;1.00;;
31728;SDS011;18309;43.658;1.312;2024-02-16T14:11:22;11.90;;;2.10;;
31728;SDS011;18309;43.658;1.312;2024-02-16T14:13:48;9.15;;;1.27;;
31728;SDS011;18309;43.658;1.312;2024-02-16T14:16:14;6.03;;;1.35;;
31728;SDS011;18309;43.658;1.312;2024-02-16T14:18:40;11.60;;;1.73;;
31728;SDS011;18309;43.658;1.312;2024-02-16T14:21:05;11.02;;;1.75;;
31728;SDS011;18309;43.658;1.312;2024-02-16T14:23:31;10.88;;;1.35;;
31728;SDS011;18309;43.658;1.312;2024-02-16T14:25:57;16.30;;;1.10;;
31728;SDS011;18309;43.658;1.312;2024-02-16T14:28:24;9.10;;;1.92;;
31728;SDS011;18309;43.658;1.312;2024-02-16T14:30:49;8.45;;;1.13;;
31728;SDS011;18309;43.658;1.312;2024-02-16T14:33:18;8.85;;;1.80;;
31728;SDS011;18309;43.658;1.312;2024-02-16T14:35:44;10.75;;;1.45;;
31728;SDS011;18309;43.658;1.312;2024-02-16T14:38:10;10.82;;;1.50;;
31728;SDS011;18309;43.658;1.312;2024-02-16T14:40:37;10.90;;;1.83;;